EGPA

Kirkwall Airport

Orkney Islands, United Kingdom
METAR EGPA 170750Z 19015KT 4200 RA FEW018 BKN031 06/05 Q1005
Observed Flight Rules
Dec-17 @ 07:50 UTC (27 minutes ago) Instrument Flight Rules
Wind Visibility Clouds Conditions
190° at 15 knots 4,200 meters
  • Few at 1,800' AGL
  • Broken at 3,100' AGL
  • Rain
Temperatures Readings
Current 6°C / 43°F
Dewpoint 5°C / 41°F
Humidity 93%
Altimeter 29.68" Hg
Pressure 1005 hPa
Elevation 21
METAR EGPA 170750Z 19015KT 4200 RA FEW018 BKN031 06/05 Q1005
Observed Flight Rules
Dec-17 @ 07:50 UTC
(27 minutes ago)
IFR
Wind Visibility
190° at 15 knots 4,200 meters
Clouds
  • Few at 1,800' AGL
  • Broken at 3,100' AGL
Conditions
  • Rain
Temperature Dewpoint
6°C / 43°F 5°C / 41°F
Humidity Altimeter Pressure
93% 29.68" Hg 1005 hPa